sensor_id;sensor_type;location;lat;lon;timestamp;pressure;altitude;pressure_sealevel;temperature;humidity
46223;BME280;31943;51.410;7.564;2022-09-03T00:00:57;99904.25;;;18.32;41.02
46223;BME280;31943;51.410;7.564;2022-09-03T00:03:32;99908.00;;;18.23;41.44
46223;BME280;31943;51.410;7.564;2022-09-03T00:06:09;99899.38;;;18.16;41.22
46223;BME280;31943;51.410;7.564;2022-09-03T00:08:41;99888.97;;;18.10;41.62
46223;BME280;31943;51.410;7.564;2022-09-03T00:11:13;99901.31;;;18.10;41.77
46223;BME280;31943;51.410;7.564;2022-09-03T00:13:44;99900.56;;;18.05;42.03
46223;BME280;31943;51.410;7.564;2022-09-03T00:16:16;99900.88;;;17.92;42.43
46223;BME280;31943;51.410;7.564;2022-09-03T00:18:46;99901.84;;;17.90;42.28
46223;BME280;31943;51.410;7.564;2022-09-03T00:21:14;99902.00;;;17.82;42.10
46223;BME280;31943;51.410;7.564;2022-09-03T00:23:43;99906.41;;;17.82;42.75
46223;BME280;31943;51.410;7.564;2022-09-03T00:26:18;99894.19;;;17.77;42.63
46223;BME280;31943;51.410;7.564;2022-09-03T00:28:50;99901.38;;;17.72;42.85
46223;BME280;31943;51.410;7.564;2022-09-03T00:31:24;99898.91;;;17.65;43.24
46223;BME280;31943;51.410;7.564;2022-09-03T00:33:57;99895.44;;;17.63;43.48
46223;BME280;31943;51.410;7.564;2022-09-03T00:36:28;99896.31;;;17.63;43.51
46223;BME280;31943;51.410;7.564;2022-09-03T00:38:57;99893.69;;;17.62;43.48
46223;BME280;31943;51.410;7.564;2022-09-03T00:41:31;99895.47;;;17.61;43.97
46223;BME280;31943;51.410;7.564;2022-09-03T00:44:12;99899.97;;;17.57;43.71
46223;BME280;31943;51.410;7.564;2022-09-03T00:46:48;99894.81;;;17.53;43.67
46223;BME280;31943;51.410;7.564;2022-09-03T00:49:27;99896.63;;;17.51;43.45
46223;BME280;31943;51.410;7.564;2022-09-03T00:52:03;99894.97;;;17.47;43.60
46223;BME280;31943;51.410;7.564;2022-09-03T00:54:38;99890.59;;;17.44;43.80
46223;BME280;31943;51.410;7.564;2022-09-03T00:57:17;99892.50;;;17.39;43.83
46223;BME280;31943;51.410;7.564;2022-09-03T00:59:53;99890.88;;;17.33;43.80
46223;BME280;31943;51.410;7.564;2022-09-03T01:02:28;99897.16;;;17.28;43.77
46223;BME280;31943;51.410;7.564;2022-09-03T01:05:03;99893.75;;;17.23;43.77
46223;BME280;31943;51.410;7.564;2022-09-03T01:07:39;99896.53;;;17.16;43.95
46223;BME280;31943;51.410;7.564;2022-09-03T01:10:15;99895.69;;;17.14;44.21
46223;BME280;31943;51.410;7.564;2022-09-03T01:12:51;99895.81;;;17.10;43.94
46223;BME280;31943;51.410;7.564;2022-09-03T01:15:26;99897.63;;;17.06;44.31
46223;BME280;31943;51.410;7.564;2022-09-03T01:18:04;99904.75;;;17.03;44.29
46223;BME280;31943;51.410;7.564;2022-09-03T01:20:39;99904.03;;;16.96;44.19
46223;BME280;31943;51.410;7.564;2022-09-03T01:26:30;99897.25;;;16.84;44.24
46223;BME280;31943;51.410;7.564;2022-09-03T01:29:11;99896.41;;;16.80;44.46
46223;BME280;31943;51.410;7.564;2022-09-03T01:31:48;99894.63;;;16.83;44.64
46223;BME280;31943;51.410;7.564;2022-09-03T01:34:21;99893.72;;;16.84;44.61
46223;BME280;31943;51.410;7.564;2022-09-03T01:36:56;99897.28;;;16.83;44.71
46223;BME280;31943;51.410;7.564;2022-09-03T01:39:32;99893.78;;;16.82;44.92
46223;BME280;31943;51.410;7.564;2022-09-03T01:42:14;99898.19;;;16.80;44.92
46223;BME280;31943;51.410;7.564;2022-09-03T01:48:09;99895.75;;;16.69;44.98
46223;BME280;31943;51.410;7.564;2022-09-03T01:50:43;99887.88;;;16.68;44.89
46223;BME280;31943;51.410;7.564;2022-09-03T01:53:20;99886.16;;;16.67;44.92
46223;BME280;31943;51.410;7.564;2022-09-03T01:56:07;99883.66;;;16.60;45.27
46223;BME280;31943;51.410;7.564;2022-09-03T01:58:40;99878.53;;;16.53;45.54
46223;BME280;31943;51.410;7.564;2022-09-03T02:01:13;99882.97;;;16.51;45.48
46223;BME280;31943;51.410;7.564;2022-09-03T02:03:43;99882.06;;;16.52;45.48
46223;BME280;31943;51.410;7.564;2022-09-03T02:06:11;99884.81;;;16.46;45.72
46223;BME280;31943;51.410;7.564;2022-09-03T02:08:37;99883.38;;;16.31;45.96
46223;BME280;31943;51.410;7.564;2022-09-03T02:11:04;99887.81;;;16.27;46.08
46223;BME280;31943;51.410;7.564;2022-09-03T02:13:35;99885.22;;;16.26;46.46
46223;BME280;31943;51.410;7.564;2022-09-03T02:16:07;99882.59;;;16.24;46.27
46223;BME280;31943;51.410;7.564;2022-09-03T02:18:38;99882.75;;;16.16;46.73
46223;BME280;31943;51.410;7.564;2022-09-03T02:21:07;99881.03;;;16.14;46.45
46223;BME280;31943;51.410;7.564;2022-09-03T02:23:33;99887.06;;;16.20;46.67
46223;BME280;31943;51.410;7.564;2022-09-03T02:26:02;99877.44;;;16.19;46.63
46223;BME280;31943;51.410;7.564;2022-09-03T02:28:29;99888.09;;;16.12;46.71
46223;BME280;31943;51.410;7.564;2022-09-03T02:30:56;99881.19;;;16.06;47.04
46223;BME280;31943;51.410;7.564;2022-09-03T02:33:21;99888.22;;;16.06;47.28
46223;BME280;31943;51.410;7.564;2022-09-03T02:35:47;99890.03;;;16.02;47.30
46223;BME280;31943;51.410;7.564;2022-09-03T02:38:17;99887.44;;;16.00;46.88
46223;BME280;31943;51.410;7.564;2022-09-03T02:40:43;99882.25;;;15.96;47.40
46223;BME280;31943;51.410;7.564;2022-09-03T02:43:13;99883.22;;;15.92;47.35
46223;BME280;31943;51.410;7.564;2022-09-03T02:45:44;99877.84;;;15.96;47.35
46223;BME280;31943;51.410;7.564;2022-09-03T02:48:14;99879.53;;;16.00;47.21
46223;BME280;31943;51.410;7.564;2022-09-03T02:50:44;99877.81;;;15.99;47.68
46223;BME280;31943;51.410;7.564;2022-09-03T02:53:09;99876.06;;;15.98;47.44
46223;BME280;31943;51.410;7.564;2022-09-03T02:55:36;99883.00;;;16.02;47.72
46223;BME280;31943;51.410;7.564;2022-09-03T02:58:02;99879.50;;;16.04;47.55
46223;BME280;31943;51.410;7.564;2022-09-03T03:00:28;99876.81;;;16.05;47.68
46223;BME280;31943;51.410;7.564;2022-09-03T03:02:55;99881.16;;;16.08;47.63
46223;BME280;31943;51.410;7.564;2022-09-03T03:05:27;99882.06;;;16.05;47.63
46223;BME280;31943;51.410;7.564;2022-09-03T03:07:55;99869.84;;;16.02;47.53
46223;BME280;31943;51.410;7.564;2022-09-03T03:10:20;99871.63;;;16.02;47.25
46223;BME280;31943;51.410;7.564;2022-09-03T03:12:47;99873.34;;;16.03;47.60
46223;BME280;31943;51.410;7.564;2022-09-03T03:15:14;99872.47;;;16.02;47.60
46223;BME280;31943;51.410;7.564;2022-09-03T03:17:39;99872.47;;;16.02;47.64
46223;BME280;31943;51.410;7.564;2022-09-03T03:20:06;99873.38;;;16.01;47.45
46223;BME280;31943;51.410;7.564;2022-09-03T03:22:32;99872.56;;;15.99;47.60
46223;BME280;31943;51.410;7.564;2022-09-03T03:24:58;99873.44;;;15.98;47.76
46223;BME280;31943;51.410;7.564;2022-09-03T03:27:24;99872.59;;;15.96;47.45
46223;BME280;31943;51.410;7.564;2022-09-03T03:29:52;99872.59;;;15.96;47.62
46223;BME280;31943;51.410;7.564;2022-09-03T03:32:18;99869.09;;;15.96;47.64
46223;BME280;31943;51.410;7.564;2022-09-03T03:34:44;99866.50;;;15.93;47.41
46223;BME280;31943;51.410;7.564;2022-09-03T03:37:10;99868.31;;;15.91;47.63
46223;BME280;31943;51.410;7.564;2022-09-03T03:39:35;99863.16;;;15.85;47.68
46223;BME280;31943;51.410;7.564;2022-09-03T03:42:01;99865.81;;;15.83;47.72
46223;BME280;31943;51.410;7.564;2022-09-03T03:44:27;99862.34;;;15.81;47.43
46223;BME280;31943;51.410;7.564;2022-09-03T03:46:54;99863.25;;;15.80;47.76
46223;BME280;31943;51.410;7.564;2022-09-03T03:49:19;99861.50;;;15.79;47.52
46223;BME280;31943;51.410;7.564;2022-09-03T03:51:45;99862.44;;;15.75;47.84
46223;BME280;31943;51.410;7.564;2022-09-03T03:54:11;99862.53;;;15.69;47.87
46223;BME280;31943;51.410;7.564;2022-09-03T03:56:37;99860.78;;;15.68;47.64
46223;BME280;31943;51.410;7.564;2022-09-03T03:59:03;99862.59;;;15.64;47.61
46223;BME280;31943;51.410;7.564;2022-09-03T04:01:29;99856.56;;;15.59;47.88
46223;BME280;31943;51.410;7.564;2022-09-03T04:03:57;99853.13;;;15.54;47.81
46223;BME280;31943;51.410;7.564;2022-09-03T04:06:23;99847.94;;;15.49;48.16
46223;BME280;31943;51.410;7.564;2022-09-03T04:08:49;99851.44;;;15.48;47.92
46223;BME280;31943;51.410;7.564;2022-09-03T04:11:18;99845.34;;;15.48;48.20
46223;BME280;31943;51.410;7.564;2022-09-03T04:13:45;99846.25;;;15.47;48.16
46223;BME280;31943;51.410;7.564;2022-09-03T04:16:13;99841.03;;;15.43;48.40
46223;BME280;31943;51.410;7.564;2022-09-03T04:18:39;99845.47;;;15.40;48.38
46223;BME280;31943;51.410;7.564;2022-09-03T04:21:09;99838.53;;;15.34;48.09
46223;BME280;31943;51.410;7.564;2022-09-03T04:23:36;99835.06;;;15.32;48.40
46223;BME280;31943;51.410;7.564;2022-09-03T04:26:03;99838.59;;;15.31;48.46
46223;BME280;31943;51.410;7.564;2022-09-03T04:28:29;99840.38;;;15.29;48.72
46223;BME280;31943;51.410;7.564;2022-09-03T04:30:59;99842.09;;;15.30;48.96
46223;BME280;31943;51.410;7.564;2022-09-03T04:33:25;99836.91;;;15.27;49.04
46223;BME280;31943;51.410;7.564;2022-09-03T04:35:50;99834.34;;;15.21;48.44
46223;BME280;31943;51.410;7.564;2022-09-03T04:38:17;99833.59;;;15.16;48.81
46223;BME280;31943;51.410;7.564;2022-09-03T04:40:50;99831.91;;;15.10;49.10
46223;BME280;31943;51.410;7.564;2022-09-03T04:43:16;99836.34;;;15.05;49.48
46223;BME280;31943;51.410;7.564;2022-09-03T04:45:42;99831.94;;;15.07;49.04
46223;BME280;31943;51.410;7.564;2022-09-03T04:48:08;99833.72;;;15.07;49.06
46223;BME280;31943;51.410;7.564;2022-09-03T04:50:33;99832.00;;;15.04;49.29
46223;BME280;31943;51.410;7.564;2022-09-03T04:53:00;99829.38;;;15.06;49.34
46223;BME280;31943;51.410;7.564;2022-09-03T04:55:28;99832.00;;;15.04;49.28
46223;BME280;31943;51.410;7.564;2022-09-03T04:57:58;99832.00;;;15.04;49.13
46223;BME280;31943;51.410;7.564;2022-09-03T05:00:24;99828.53;;;15.02;49.04
46223;BME280;31943;51.410;7.564;2022-09-03T05:02:50;99832.03;;;15.02;49.34
46223;BME280;31943;51.410;7.564;2022-09-03T05:05:16;99835.56;;;15.00;49.11
46223;BME280;31943;51.410;7.564;2022-09-03T05:07:42;99833.03;;;14.94;49.53
46223;BME280;31943;51.410;7.564;2022-09-03T05:10:09;99836.63;;;14.87;49.47
46223;BME280;31943;51.410;7.564;2022-09-03T05:12:37;99836.66;;;14.83;49.96
46223;BME280;31943;51.410;7.564;2022-09-03T05:15:03;99842.75;;;14.86;49.77
46223;BME280;31943;51.410;7.564;2022-09-03T05:17:29;99833.97;;;14.90;50.05
46223;BME280;31943;51.410;7.564;2022-09-03T05:19:54;99840.94;;;14.91;50.08
46223;BME280;31943;51.410;7.564;2022-09-03T05:22:20;99832.19;;;14.92;50.28
46223;BME280;31943;51.410;7.564;2022-09-03T05:24:47;99833.97;;;14.90;50.26
46223;BME280;31943;51.410;7.564;2022-09-03T05:27:12;99838.31;;;14.92;50.24
46223;BME280;31943;51.410;7.564;2022-09-03T05:29:41;99840.88;;;14.95;50.55
46223;BME280;31943;51.410;7.564;2022-09-03T05:32:06;99830.41;;;14.94;50.44
46223;BME280;31943;51.410;7.564;2022-09-03T05:34:32;99830.38;;;14.95;50.73
46223;BME280;31943;51.410;7.564;2022-09-03T05:36:58;99835.59;;;14.97;50.88
46223;BME280;31943;51.410;7.564;2022-09-03T05:39:23;99833.88;;;14.96;50.92
46223;BME280;31943;51.410;7.564;2022-09-03T05:41:49;99826.84;;;14.98;51.41
46223;BME280;31943;51.410;7.564;2022-09-03T05:44:15;99837.28;;;15.02;51.29
46223;BME280;31943;51.410;7.564;2022-09-03T05:46:42;99835.47;;;15.06;51.21
46223;BME280;31943;51.410;7.564;2022-09-03T05:49:08;99836.31;;;15.10;51.28
46223;BME280;31943;51.410;7.564;2022-09-03T05:51:36;99833.59;;;15.14;51.03
46223;BME280;31943;51.410;7.564;2022-09-03T05:54:03;99831.78;;;15.18;51.36
46223;BME280;31943;51.410;7.564;2022-09-03T05:56:30;99835.19;;;15.25;51.73
46223;BME280;31943;51.410;7.564;2022-09-03T05:58:57;99828.22;;;15.23;51.58
46223;BME280;31943;51.410;7.564;2022-09-03T06:01:24;99836.13;;;15.19;51.33
46223;BME280;31943;51.410;7.564;2022-09-03T06:03:56;99831.69;;;15.24;51.22
46223;BME280;31943;51.410;7.564;2022-09-03T06:06:23;99831.59;;;15.29;51.57
46223;BME280;31943;51.410;7.564;2022-09-03T06:08:50;99832.41;;;15.34;51.60
46223;BME280;31943;51.410;7.564;2022-09-03T06:11:16;99834.09;;;15.39;51.45
46223;BME280;31943;51.410;7.564;2022-09-03T06:13:42;99839.22;;;15.47;51.71
46223;BME280;31943;51.410;7.564;2022-09-03T06:16:08;99840.88;;;15.54;51.70
46223;BME280;31943;51.410;7.564;2022-09-03T06:18:34;99835.50;;;15.60;51.74
46223;BME280;31943;51.410;7.564;2022-09-03T06:21:06;99829.28;;;15.65;51.58
46223;BME280;31943;51.410;7.564;2022-09-03T06:23:33;99825.69;;;15.70;52.05
46223;BME280;31943;51.410;7.564;2022-09-03T06:26:00;99828.34;;;15.67;51.75
46223;BME280;31943;51.410;7.564;2022-09-03T06:28:26;99828.34;;;15.69;51.56
46223;BME280;31943;51.410;7.564;2022-09-03T06:30:52;99832.66;;;15.74;51.46
46223;BME280;31943;51.410;7.564;2022-09-03T06:33:18;99836.00;;;15.82;51.10
46223;BME280;31943;51.410;7.564;2022-09-03T06:35:43;99840.28;;;15.90;50.62
46223;BME280;31943;51.410;7.564;2022-09-03T06:38:11;99839.19;;;16.01;50.49
46223;BME280;31943;51.410;7.564;2022-09-03T06:40:37;99836.34;;;16.11;50.06
46223;BME280;31943;51.410;7.564;2022-09-03T06:43:03;99834.44;;;16.19;50.29
46223;BME280;31943;51.410;7.564;2022-09-03T06:45:29;99837.72;;;16.30;50.07
46223;BME280;31943;51.410;7.564;2022-09-03T06:47:54;99832.25;;;16.41;50.19
46223;BME280;31943;51.410;7.564;2022-09-03T06:50:20;99839.88;;;16.53;49.86
46223;BME280;31943;51.410;7.564;2022-09-03T06:52:50;99829.06;;;16.67;50.11
46223;BME280;31943;51.410;7.564;2022-09-03T06:55:17;99827.91;;;16.79;49.61
46223;BME280;31943;51.410;7.564;2022-09-03T06:57:43;99833.78;;;16.93;48.16
46223;BME280;31943;51.410;7.564;2022-09-03T07:00:09;99838.66;;;17.10;48.16
46223;BME280;31943;51.410;7.564;2022-09-03T07:02:35;99841.84;;;17.25;47.75
46223;BME280;31943;51.410;7.564;2022-09-03T07:05:01;99836.28;;;17.37;47.30
46223;BME280;31943;51.410;7.564;2022-09-03T07:07:26;99840.31;;;17.50;46.94
46223;BME280;31943;51.410;7.564;2022-09-03T07:09:52;99837.31;;;17.66;46.68
46223;BME280;31943;51.410;7.564;2022-09-03T07:12:19;99837.84;;;17.80;46.71
46223;BME280;31943;51.410;7.564;2022-09-03T07:14:45;99832.25;;;17.92;46.24
46223;BME280;31943;51.410;7.564;2022-09-03T07:17:11;99838.91;;;18.07;45.01
46223;BME280;31943;51.410;7.564;2022-09-03T07:19:36;99837.72;;;18.19;44.47
46223;BME280;31943;51.410;7.564;2022-09-03T07:22:02;99835.53;;;18.33;44.59
46223;BME280;31943;51.410;7.564;2022-09-03T07:24:28;99832.53;;;18.46;43.98
46223;BME280;31943;51.410;7.564;2022-09-03T07:26:54;99835.63;;;18.60;43.52
46223;BME280;31943;51.410;7.564;2022-09-03T07:29:21;99827.34;;;18.72;43.18
46223;BME280;31943;51.410;7.564;2022-09-03T07:31:47;99833.09;;;18.87;43.46
46223;BME280;31943;51.410;7.564;2022-09-03T07:34:13;99827.31;;;19.04;43.40
46223;BME280;31943;51.410;7.564;2022-09-03T07:36:40;99837.97;;;19.01;43.40
46223;BME280;31943;51.410;7.564;2022-09-03T07:39:07;99830.81;;;19.04;43.00
46223;BME280;31943;51.410;7.564;2022-09-03T07:41:32;99836.75;;;19.11;42.42
46223;BME280;31943;51.410;7.564;2022-09-03T07:43:58;99843.59;;;19.18;42.10
46223;BME280;31943;51.410;7.564;2022-09-03T07:46:26;99845.09;;;19.27;42.29
46223;BME280;31943;51.410;7.564;2022-09-03T07:48:53;99840.41;;;19.35;41.44
46223;BME280;31943;51.410;7.564;2022-09-03T07:51:21;99841.03;;;19.43;42.09
46223;BME280;31943;51.410;7.564;2022-09-03T07:53:47;99847.94;;;19.47;41.95
46223;BME280;31943;51.410;7.564;2022-09-03T07:56:14;99838.81;;;19.56;41.61
46223;BME280;31943;51.410;7.564;2022-09-03T07:58:40;99838.56;;;19.64;42.01
46223;BME280;31943;51.410;7.564;2022-09-03T08:01:08;99842.81;;;19.68;41.86
46223;BME280;31943;51.410;7.564;2022-09-03T08:03:36;99843.63;;;19.71;42.02
46223;BME280;31943;51.410;7.564;2022-09-03T08:06:06;99836.50;;;19.73;41.41
46223;BME280;31943;51.410;7.564;2022-09-03T08:08:32;99838.25;;;19.74;41.39
46223;BME280;31943;51.410;7.564;2022-09-03T08:11:03;99841.53;;;19.81;41.56
46223;BME280;31943;51.410;7.564;2022-09-03T08:13:29;99843.88;;;19.90;41.52
46223;BME280;31943;51.410;7.564;2022-09-03T08:15:55;99851.72;;;19.93;41.08
46223;BME280;31943;51.410;7.564;2022-09-03T08:18:21;99850.72;;;19.96;41.42
46223;BME280;31943;51.410;7.564;2022-09-03T08:20:48;99853.13;;;20.04;41.44
46223;BME280;31943;51.410;7.564;2022-09-03T08:23:14;99857.34;;;20.09;41.16
46223;BME280;31943;51.410;7.564;2022-09-03T08:25:39;99854.25;;;20.22;40.71
46223;BME280;31943;51.410;7.564;2022-09-03T08:28:05;99843.25;;;20.32;41.24
46223;BME280;31943;51.410;7.564;2022-09-03T08:30:31;99849.25;;;20.38;40.99
46223;BME280;31943;51.410;7.564;2022-09-03T08:33:00;99851.66;;;20.44;40.63
46223;BME280;31943;51.410;7.564;2022-09-03T08:35:26;99855.69;;;20.54;40.40
46223;BME280;31943;51.410;7.564;2022-09-03T08:37:53;99854.69;;;20.58;40.41
46223;BME280;31943;51.410;7.564;2022-09-03T08:40:20;99857.94;;;20.66;40.32
46223;BME280;31943;51.410;7.564;2022-09-03T08:42:56;99853.31;;;20.71;40.21
46223;BME280;31943;51.410;7.564;2022-09-03T08:45:24;99854.88;;;20.77;40.02
46223;BME280;31943;51.410;7.564;2022-09-03T08:47:55;99850.56;;;20.97;40.30
46223;BME280;31943;51.410;7.564;2022-09-03T08:50:25;99851.78;;;21.11;39.66
46223;BME280;31943;51.410;7.564;2022-09-03T08:52:56;99850.75;;;21.36;39.37
46223;BME280;31943;51.410;7.564;2022-09-03T08:55:26;99850.72;;;21.60;39.04
46223;BME280;31943;51.410;7.564;2022-09-03T08:57:57;99862.00;;;21.65;38.98
46223;BME280;31943;51.410;7.564;2022-09-03T09:00:31;99859.50;;;21.82;38.39
46223;BME280;31943;51.410;7.564;2022-09-03T09:06:06;99853.00;;;22.30;37.87
46223;BME280;31943;51.410;7.564;2022-09-03T09:08:37;99844.00;;;22.54;37.51
46223;BME280;31943;51.410;7.564;2022-09-03T09:11:12;99837.09;;;22.68;36.77
46223;BME280;31943;51.410;7.564;2022-09-03T09:13:43;99841.78;;;22.82;37.08
46223;BME280;31943;51.410;7.564;2022-09-03T09:16:18;99843.66;;;22.99;36.84
46223;BME280;31943;51.410;7.564;2022-09-03T09:19:06;99843.63;;;23.18;36.53
46223;BME280;31943;51.410;7.564;2022-09-03T09:21:37;99834.13;;;23.32;36.40
46223;BME280;31943;51.410;7.564;2022-09-03T09:24:12;99831.22;;;23.36;36.12
46223;BME280;31943;51.410;7.564;2022-09-03T09:26:42;99827.28;;;23.26;36.37
46223;BME280;31943;51.410;7.564;2022-09-03T09:29:08;99830.28;;;23.37;36.36
46223;BME280;31943;51.410;7.564;2022-09-03T09:31:36;99821.75;;;23.48;36.14
46223;BME280;31943;51.410;7.564;2022-09-03T09:34:04;99821.38;;;23.56;36.11
46223;BME280;31943;51.410;7.564;2022-09-03T09:36:30;99820.00;;;23.66;35.66
46223;BME280;31943;51.410;7.564;2022-09-03T09:38:55;99812.16;;;23.80;36.07
46223;BME280;31943;51.410;7.564;2022-09-03T09:41:33;99815.81;;;23.95;35.53
46223;BME280;31943;51.410;7.564;2022-09-03T09:44:00;99820.69;;;24.04;35.11
46223;BME280;31943;51.410;7.564;2022-09-03T09:46:32;99814.88;;;24.14;35.59
46223;BME280;31943;51.410;7.564;2022-09-03T09:48:59;99806.91;;;24.30;35.40
46223;BME280;31943;51.410;7.564;2022-09-03T09:51:26;99814.88;;;24.47;34.96
46223;BME280;31943;51.410;7.564;2022-09-03T09:54:00;99820.25;;;24.63;34.56
46223;BME280;31943;51.410;7.564;2022-09-03T09:56:27;99815.97;;;24.76;34.95
46223;BME280;31943;51.410;7.564;2022-09-03T09:59:03;99821.28;;;24.92;34.58
46223;BME280;31943;51.410;7.564;2022-09-03T10:01:30;99816.22;;;25.03;34.27
46223;BME280;31943;51.410;7.564;2022-09-03T10:03:58;99817.91;;;25.20;34.58
46223;BME280;31943;51.410;7.564;2022-09-03T10:06:25;99817.03;;;25.20;33.80
46223;BME280;31943;51.410;7.564;2022-09-03T10:08:52;99814.91;;;25.11;33.69
46223;BME280;31943;51.410;7.564;2022-09-03T10:11:20;99815.88;;;25.25;33.72
46223;BME280;31943;51.410;7.564;2022-09-03T10:13:47;99821.97;;;25.58;33.20
46223;BME280;31943;51.410;7.564;2022-09-03T10:16:24;99803.13;;;25.61;33.85
46223;BME280;31943;51.410;7.564;2022-09-03T10:18:57;99813.75;;;25.47;33.32
46223;BME280;31943;51.410;7.564;2022-09-03T10:21:29;99812.00;;;25.31;33.32
46223;BME280;31943;51.410;7.564;2022-09-03T10:23:59;99811.34;;;25.42;34.15
46223;BME280;31943;51.410;7.564;2022-09-03T10:26:28;99806.38;;;25.66;33.77
46223;BME280;31943;51.410;7.564;2022-09-03T10:28:56;99804.28;;;25.71;33.50
46223;BME280;31943;51.410;7.564;2022-09-03T10:34:23;99807.25;;;26.11;33.47
46223;BME280;31943;51.410;7.564;2022-09-03T10:36:57;99800.56;;;26.33;33.28
46223;BME280;31943;51.410;7.564;2022-09-03T10:39:33;99798.19;;;26.42;33.22
46223;BME280;31943;51.410;7.564;2022-09-03T10:42:24;99795.56;;;26.55;33.30
46223;BME280;31943;51.410;7.564;2022-09-03T10:45:00;99798.38;;;26.68;33.70
46223;BME280;31943;51.410;7.564;2022-09-03T10:47:39;99805.50;;;26.68;33.43
46223;BME280;31943;51.410;7.564;2022-09-03T10:50:14;99791.75;;;26.74;33.18
46223;BME280;31943;51.410;7.564;2022-09-03T10:52:56;99797.13;;;26.74;33.46
46223;BME280;31943;51.410;7.564;2022-09-03T10:55:32;99799.41;;;26.80;33.28
46223;BME280;31943;51.410;7.564;2022-09-03T10:58:07;99799.09;;;26.85;32.89
46223;BME280;31943;51.410;7.564;2022-09-03T11:00:47;99803.13;;;27.05;33.39
46223;BME280;31943;51.410;7.564;2022-09-03T11:06:22;99809.22;;;26.94;33.26
46223;BME280;31943;51.410;7.564;2022-09-03T11:08:54;99808.09;;;27.11;32.91
46223;BME280;31943;51.410;7.564;2022-09-03T11:11:25;99806.06;;;27.29;32.42
46223;BME280;31943;51.410;7.564;2022-09-03T11:13:57;99803.41;;;27.41;32.10
46223;BME280;31943;51.410;7.564;2022-09-03T11:16:26;99806.00;;;27.56;31.70
46223;BME280;31943;51.410;7.564;2022-09-03T11:18:54;99808.09;;;27.38;31.96
46223;BME280;31943;51.410;7.564;2022-09-03T11:21:25;99798.22;;;27.26;31.40
46223;BME280;31943;51.410;7.564;2022-09-03T11:24:00;99802.44;;;27.15;32.02
46223;BME280;31943;51.410;7.564;2022-09-03T11:26:29;99803.84;;;26.94;32.48
46223;BME280;31943;51.410;7.564;2022-09-03T11:28:58;99798.28;;;26.97;32.81
46223;BME280;31943;51.410;7.564;2022-09-03T11:31:33;99795.72;;;26.95;32.65
46223;BME280;31943;51.410;7.564;2022-09-03T11:34:07;99798.31;;;26.82;32.69
46223;BME280;31943;51.410;7.564;2022-09-03T11:36:36;99791.94;;;26.71;33.61
46223;BME280;31943;51.410;7.564;2022-09-03T11:39:12;99799.44;;;26.93;32.81
46223;BME280;31943;51.410;7.564;2022-09-03T11:41:39;99803.38;;;27.14;32.02
46223;BME280;31943;51.410;7.564;2022-09-03T11:44:16;99803.72;;;27.22;32.17
46223;BME280;31943;51.410;7.564;2022-09-03T11:46:52;99800.28;;;27.08;32.21
46223;BME280;31943;51.410;7.564;2022-09-03T11:49:27;99805.88;;;26.90;31.99
46223;BME280;31943;51.410;7.564;2022-09-03T11:51:58;99796.63;;;26.67;32.11
46223;BME280;31943;51.410;7.564;2022-09-03T11:54:24;99802.94;;;26.52;32.33
46223;BME280;31943;51.410;7.564;2022-09-03T11:57:01;99807.53;;;26.35;32.79
46223;BME280;31943;51.410;7.564;2022-09-03T11:59:28;99810.50;;;26.45;32.99
46223;BME280;31943;51.410;7.564;2022-09-03T12:01:57;99805.50;;;26.53;32.66
46223;BME280;31943;51.410;7.564;2022-09-03T12:04:26;99804.41;;;26.29;32.66
46223;BME280;31943;51.410;7.564;2022-09-03T12:07:24;99812.00;;;26.20;33.01
46223;BME280;31943;51.410;7.564;2022-09-03T12:10:08;99811.06;;;26.21;33.37
46223;BME280;31943;51.410;7.564;2022-09-03T12:12:51;99813.06;;;26.32;33.19
46223;BME280;31943;51.410;7.564;2022-09-03T12:15:36;99811.84;;;26.23;33.25
46223;BME280;31943;51.410;7.564;2022-09-03T12:18:08;99825.38;;;26.20;33.42
46223;BME280;31943;51.410;7.564;2022-09-03T12:20:35;99832.09;;;26.13;33.44
46223;BME280;31943;51.410;7.564;2022-09-03T12:23:03;99825.56;;;26.03;33.66
46223;BME280;31943;51.410;7.564;2022-09-03T12:25:28;99816.59;;;26.04;33.35
46223;BME280;31943;51.410;7.564;2022-09-03T12:27:54;99823.19;;;26.13;33.62
46223;BME280;31943;51.410;7.564;2022-09-03T12:30:21;99830.09;;;26.17;33.49
46223;BME280;31943;51.410;7.564;2022-09-03T12:32:48;99831.19;;;26.13;33.79
46223;BME280;31943;51.410;7.564;2022-09-03T12:35:16;99829.28;;;26.15;33.75
46223;BME280;31943;51.410;7.564;2022-09-03T12:37:43;99817.09;;;26.25;33.94
46223;BME280;31943;51.410;7.564;2022-09-03T12:40:19;99807.72;;;26.47;33.64
46223;BME280;31943;51.410;7.564;2022-09-03T12:42:44;99804.56;;;26.54;33.75
46223;BME280;31943;51.410;7.564;2022-09-03T12:45:11;99814.69;;;26.78;34.19
46223;BME280;31943;51.410;7.564;2022-09-03T12:47:38;99803.84;;;26.94;33.56
46223;BME280;31943;51.410;7.564;2022-09-03T12:50:06;99813.50;;;27.23;33.28
46223;BME280;31943;51.410;7.564;2022-09-03T12:52:35;99810.50;;;27.42;33.41
46223;BME280;31943;51.410;7.564;2022-09-03T12:55:05;99804.97;;;27.58;33.49
46223;BME280;31943;51.410;7.564;2022-09-03T12:57:37;99798.69;;;27.98;33.32
46223;BME280;31943;51.410;7.564;2022-09-03T13:00:07;99798.59;;;28.25;32.44
46223;BME280;31943;51.410;7.564;2022-09-03T13:02:37;99801.44;;;28.48;32.29
46223;BME280;31943;51.410;7.564;2022-09-03T13:05:04;99797.81;;;28.49;31.83
46223;BME280;31943;51.410;7.564;2022-09-03T13:07:35;99809.31;;;28.25;32.22
46223;BME280;31943;51.410;7.564;2022-09-03T13:10:04;99802.25;;;28.11;32.57
46223;BME280;31943;51.410;7.564;2022-09-03T13:12:40;99808.91;;;28.06;32.96
46223;BME280;31943;51.410;7.564;2022-09-03T13:15:09;99815.22;;;27.92;32.94
46223;BME280;31943;51.410;7.564;2022-09-03T13:17:52;99818.78;;;28.05;32.72
46223;BME280;31943;51.410;7.564;2022-09-03T13:20:28;99814.72;;;27.72;32.85
46223;BME280;31943;51.410;7.564;2022-09-03T13:23:11;99811.25;;;27.57;33.04
46223;BME280;31943;51.410;7.564;2022-09-03T13:25:47;99806.38;;;27.64;33.65
46223;BME280;31943;51.410;7.564;2022-09-03T13:28:23;99798.66;;;27.72;33.05